FMSD

Details ICAO FMSD (FTU)
Name TOLAGNARO
Region Comoros, Mayotte, Réunion and Madagascar
Timezone Indian/Antananarivo (UTC+3.0)
Plans Departing 17
Arriving 18
Stats Elevation 29 ft / 9 m (AMSL)
Location -25.039276° 46.956381°
Runways 1
Magnetic Variation 23.800° W
Sunrise 2017-12-17 01:58:57 UTC / 2017-12-17 04:58:57 Local
Sunset 2017-12-17 15:40:15 UTC / 2017-12-17 18:40:15 Local
Advertisement - Login to hide

Runways

ID Width Length Bearing (true) Bearing (mag) Surface Threshold Offset Overrun Length
08 98 ft / 30 m 4,919 ft / 1,499 m 52.01° 75.81° Asphalt 0 ft / 0 m 0 ft / 0 m
26 98 ft / 30 m 4,919 ft / 1,499 m 232.01° 255.81° Asphalt 0 ft / 0 m 0 ft / 0 m

Map

Weather


0- 5 10 15 20 25 30 35+ Temperature / ° C

Clouds and Precipitation
Forecast for 2017-12-18 00:00 UTC. Updated 37 minutes ago

Ground ~20,000 ft ~40,000 ft Winds

METAR

FMSD 171900Z 06016KT CAVOK 25/23 Q1014

TAF

Not found

Frequencies

Tower 118.70 MHz AFIS
Warning: Do not use this data for real-world aviation or navigation. No guarantee of current accuracy is given.